createdAt,value
2023-01-26T00:01:17.033Z,70.70
2023-01-26T00:03:44.109Z,72.23
2023-01-26T00:06:12.927Z,77.50
2023-01-26T00:08:40.768Z,74.57
2023-01-26T00:11:08.878Z,74.67
2023-01-26T00:13:36.000Z,72.43
2023-01-26T00:16:03.823Z,75.50
2023-01-26T00:18:31.484Z,78.63
2023-01-26T00:20:59.354Z,79.13
2023-01-26T00:23:26.035Z,78.17
2023-01-26T00:25:52.624Z,80.90
2023-01-26T00:28:19.117Z,77.97
2023-01-26T00:30:45.861Z,75.70
2023-01-26T00:33:13.041Z,75.20
2023-01-26T00:35:39.499Z,78.50
2023-01-26T00:38:06.031Z,75.07
2023-01-26T00:40:32.560Z,80.83
2023-01-26T00:42:59.306Z,82.33
2023-01-26T00:45:25.756Z,79.70
2023-01-26T00:47:52.301Z,82.33
2023-01-26T00:50:18.930Z,79.30
2023-01-26T00:52:45.362Z,76.37
2023-01-26T00:55:12.495Z,75.83
2023-01-26T00:57:39.363Z,72.00
2023-01-26T01:00:06.665Z,76.40
2023-01-26T01:02:33.125Z,72.47
2023-01-26T01:04:59.576Z,84.97
2023-01-26T01:07:26.198Z,69.37
2023-01-26T01:09:52.646Z,71.30
2023-01-26T01:12:19.090Z,75.03
2023-01-26T01:14:46.023Z,78.63
2023-01-26T01:17:15.338Z,84.63
2023-01-26T01:19:41.876Z,77.37
2023-01-26T01:22:08.365Z,79.30
2023-01-26T01:24:35.322Z,73.33
2023-01-26T01:27:01.987Z,71.27
2023-01-26T01:29:28.574Z,75.60
2023-01-26T01:31:55.268Z,76.43
2023-01-26T01:34:21.720Z,81.13
2023-01-26T01:36:48.255Z,78.43
2023-01-26T01:41:41.271Z,75.73
2023-01-26T01:44:14.680Z,73.57
2023-01-26T01:46:46.192Z,79.07
2023-01-26T01:49:21.523Z,77.43
2023-01-26T01:51:52.736Z,77.77
2023-01-26T01:54:23.312Z,72.63
2023-01-26T01:56:52.950Z,77.30
2023-01-26T01:59:21.310Z,78.33
2023-01-26T02:01:49.610Z,77.90
2023-01-26T02:04:16.138Z,85.33
2023-01-26T02:06:47.965Z,73.73
2023-01-26T02:09:34.749Z,81.57
2023-01-26T02:12:02.811Z,74.77
2023-01-26T02:14:29.495Z,80.00
2023-01-26T02:16:55.973Z,74.63
2023-01-26T02:19:30.600Z,73.50
2023-01-26T02:22:01.137Z,76.17
2023-01-26T02:24:29.867Z,75.20
2023-01-26T02:26:56.485Z,77.57
2023-01-26T02:29:23.182Z,72.97
2023-01-26T02:31:49.751Z,76.87
2023-01-26T02:34:16.269Z,81.97
2023-01-26T02:36:42.722Z,79.70
2023-01-26T02:39:14.798Z,77.87
2023-01-26T02:42:00.726Z,77.87
2023-01-26T02:44:27.702Z,79.40
2023-01-26T02:46:54.172Z,75.50
2023-01-26T02:49:39.252Z,76.93
2023-01-26T02:52:06.707Z,79.83
2023-01-26T02:54:51.637Z,77.77
2023-01-26T02:57:18.254Z,81.67
2023-01-26T02:59:44.820Z,85.90
2023-01-26T03:02:11.817Z,76.73
2023-01-26T03:04:38.360Z,81.87
2023-01-26T03:07:05.245Z,81.00
2023-01-26T03:09:31.767Z,77.33
2023-01-26T03:11:58.258Z,77.50
2023-01-26T03:14:24.722Z,77.53
2023-01-26T03:16:51.239Z,78.70
2023-01-26T03:19:36.327Z,80.13
2023-01-26T03:22:21.421Z,85.03
2023-01-26T03:25:06.617Z,82.77
2023-01-26T03:27:45.197Z,85.83
2023-01-26T03:30:13.103Z,84.80
2023-01-26T03:32:40.070Z,75.57
2023-01-26T03:35:07.411Z,78.53
2023-01-26T03:37:36.886Z,84.97
2023-01-26T03:40:25.022Z,81.67
2023-01-26T03:43:10.361Z,87.60
2023-01-26T03:45:55.589Z,86.30
2023-01-26T03:48:40.987Z,84.50
2023-01-26T03:51:26.390Z,79.10
2023-01-26T03:54:11.688Z,87.20
2023-01-26T03:56:38.464Z,85.50
2023-01-26T03:59:09.687Z,89.90
2023-01-26T04:01:38.182Z,84.07
2023-01-26T04:04:24.639Z,91.10
2023-01-26T04:07:09.983Z,80.33
2023-01-26T04:09:37.374Z,85.67
2023-01-26T04:12:05.191Z,88.53
2023-01-26T04:14:50.819Z,83.57
2023-01-26T04:17:37.208Z,82.17
2023-01-26T04:20:26.611Z,87.00
2023-01-26T04:22:53.172Z,90.97
2023-01-26T04:25:21.557Z,78.37
2023-01-26T04:27:48.016Z,92.70
2023-01-26T04:30:15.915Z,83.00
2023-01-26T04:32:42.591Z,83.17
2023-01-26T04:35:09.905Z,88.53
2023-01-26T04:37:36.451Z,90.57
2023-01-26T04:40:04.247Z,86.20
2023-01-26T04:42:30.776Z,81.80
2023-01-26T04:44:57.328Z,93.00
2023-01-26T04:47:23.801Z,78.77
2023-01-26T04:49:50.451Z,85.10
2023-01-26T04:52:16.991Z,83.93
2023-01-26T04:54:43.576Z,82.77
2023-01-26T04:57:10.057Z,74.30
2023-01-26T04:59:36.996Z,84.60
2023-01-26T05:02:03.572Z,82.90
2023-01-26T05:04:30.269Z,80.57
2023-01-26T05:06:56.842Z,80.20
2023-01-26T05:09:23.331Z,89.03
2023-01-26T05:11:49.790Z,86.40
2023-01-26T05:14:16.452Z,84.47
2023-01-26T05:16:42.982Z,93.50
2023-01-26T05:19:09.500Z,78.83
2023-01-26T05:21:36.098Z,82.27
2023-01-26T05:24:02.643Z,87.53
2023-01-26T05:26:29.330Z,76.87
2023-01-26T05:28:55.955Z,121.27
2023-01-26T05:31:22.585Z,87.43
2023-01-26T05:33:49.087Z,82.43
2023-01-26T05:36:15.753Z,81.73
2023-01-26T05:38:42.217Z,75.87
2023-01-26T05:41:08.725Z,74.27
2023-01-26T05:43:35.316Z,80.03
2023-01-26T05:46:01.896Z,80.83
2023-01-26T05:48:28.395Z,75.10
2023-01-26T05:50:56.982Z,76.27
2023-01-26T05:53:23.529Z,77.10
2023-01-26T05:55:50.001Z,77.30
2023-01-26T05:58:16.487Z,70.83
2023-01-26T06:00:42.969Z,73.13
2023-01-26T06:03:09.444Z,70.67
2023-01-26T06:05:35.977Z,74.40
2023-01-26T06:08:02.457Z,76.23
2023-01-26T06:10:29.009Z,77.20
2023-01-26T06:12:55.469Z,77.13
2023-01-26T06:15:22.009Z,74.17
2023-01-26T06:17:48.613Z,71.00
2023-01-26T06:20:15.220Z,72.40
2023-01-26T06:22:41.732Z,80.23
2023-01-26T06:25:08.638Z,82.07
2023-01-26T06:27:36.047Z,75.07
2023-01-26T06:30:05.383Z,71.97
2023-01-26T06:32:31.868Z,86.07
2023-01-26T06:34:58.326Z,85.17
2023-01-26T06:37:24.853Z,83.90
2023-01-26T06:39:51.347Z,89.90
2023-01-26T06:42:18.012Z,90.87
2023-01-26T06:44:44.504Z,90.03
2023-01-26T06:47:12.633Z,97.53
2023-01-26T06:49:39.230Z,92.27
2023-01-26T06:52:23.310Z,96.73
2023-01-26T06:54:50.889Z,94.47
2023-01-26T06:57:17.481Z,94.57
2023-01-26T06:59:44.018Z,90.83
2023-01-26T07:02:21.149Z,88.13
2023-01-26T07:04:48.760Z,95.73
2023-01-26T07:07:15.560Z,98.93
2023-01-26T07:09:42.081Z,96.27
2023-01-26T07:12:09.546Z,97.97
2023-01-26T07:14:36.256Z,86.73
2023-01-26T07:17:02.711Z,92.80
2023-01-26T07:19:31.309Z,91.00
2023-01-26T07:21:57.823Z,90.03
2023-01-26T07:24:24.844Z,84.47
2023-01-26T07:26:51.705Z,81.20
2023-01-26T07:29:18.350Z,85.53
2023-01-26T07:31:44.842Z,86.30
2023-01-26T07:34:12.418Z,71.37
2023-01-26T07:36:38.989Z,78.17
2023-01-26T07:39:08.407Z,75.30
2023-01-26T07:41:35.297Z,75.07
2023-01-26T07:44:01.960Z,77.27
2023-01-26T07:46:28.658Z,79.43
2023-01-26T07:48:55.253Z,68.60
2023-01-26T07:51:21.851Z,73.17
2023-01-26T07:53:49.918Z,72.73
2023-01-26T07:56:19.618Z,77.10
2023-01-26T07:58:53.208Z,64.37
2023-01-26T08:01:20.196Z,69.23
2023-01-26T08:03:50.654Z,59.00
2023-01-26T08:06:18.484Z,68.70
2023-01-26T08:08:46.531Z,69.33
2023-01-26T08:11:13.290Z,67.33
2023-01-26T08:13:39.923Z,68.67
2023-01-26T08:16:12.926Z,59.03
2023-01-26T08:18:40.544Z,61.03
2023-01-26T08:21:07.140Z,61.03
2023-01-26T08:23:33.757Z,55.37
2023-01-26T08:26:12.059Z,54.63
2023-01-26T08:28:38.655Z,57.27
2023-01-26T08:31:06.932Z,50.10
2023-01-26T08:33:34.006Z,48.60
2023-01-26T08:36:04.728Z,53.90
2023-01-26T08:38:32.267Z,63.57
2023-01-26T08:40:59.460Z,51.23
2023-01-26T08:43:25.968Z,51.87
2023-01-26T08:45:52.600Z,51.00
2023-01-26T08:48:19.093Z,52.77
2023-01-26T08:50:46.652Z,46.70
2023-01-26T08:53:13.235Z,44.10
2023-01-26T08:55:39.839Z,43.40
2023-01-26T08:58:06.281Z,47.10
2023-01-26T09:00:33.283Z,49.13
2023-01-26T09:03:01.535Z,47.60
2023-01-26T09:05:31.839Z,41.53
2023-01-26T09:07:58.339Z,37.07
2023-01-26T09:10:24.943Z,47.60
2023-01-26T09:12:51.608Z,43.60
2023-01-26T09:15:18.090Z,44.57
2023-01-26T09:17:44.697Z,40.60
2023-01-26T09:20:12.195Z,33.57
2023-01-26T09:22:38.885Z,36.70
2023-01-26T09:25:05.884Z,33.57
2023-01-26T09:27:32.413Z,38.77
2023-01-26T09:29:59.757Z,33.17
2023-01-26T09:32:26.264Z,38.77
2023-01-26T09:34:52.894Z,33.90
2023-01-26T09:37:19.482Z,39.33
2023-01-26T09:39:45.950Z,43.00
2023-01-26T09:42:25.698Z,36.40
2023-01-26T09:45:09.604Z,37.30
2023-01-26T09:47:45.245Z,34.87
2023-01-26T09:50:16.392Z,35.70
2023-01-26T09:52:58.942Z,30.83
2023-01-26T09:55:26.183Z,33.30
2023-01-26T09:58:00.409Z,33.13
2023-01-26T10:00:27.018Z,33.23
2023-01-26T10:03:05.801Z,31.83
2023-01-26T10:05:41.151Z,29.17
2023-01-26T10:08:15.950Z,35.70
2023-01-26T10:10:48.311Z,33.17
2023-01-26T10:13:16.268Z,36.87
2023-01-26T10:15:44.719Z,31.90
2023-01-26T10:18:18.776Z,32.60
2023-01-26T10:20:54.609Z,27.87
2023-01-26T10:23:27.596Z,28.87
2023-01-26T10:25:56.839Z,31.70
2023-01-26T10:28:29.986Z,26.47
2023-01-26T10:30:57.319Z,34.03
2023-01-26T10:33:31.058Z,27.73
2023-01-26T10:35:58.670Z,25.53
2023-01-26T10:38:34.000Z,33.83
2023-01-26T10:41:01.663Z,27.63
2023-01-26T10:43:28.352Z,30.03
2023-01-26T10:45:54.864Z,30.20
2023-01-26T10:48:26.837Z,27.97
2023-01-26T10:50:54.402Z,30.57
2023-01-26T10:53:28.317Z,28.07
2023-01-26T10:56:01.103Z,28.27
2023-01-26T10:58:48.682Z,29.63
2023-01-26T11:01:18.968Z,26.83
2023-01-26T11:04:10.279Z,28.20
2023-01-26T11:06:36.821Z,28.10
2023-01-26T11:09:11.759Z,27.73
2023-01-26T11:11:38.475Z,26.70
2023-01-26T11:14:19.348Z,24.57
2023-01-26T11:16:49.367Z,29.20
2023-01-26T11:19:40.112Z,27.80
2023-01-26T11:22:09.354Z,25.33
2023-01-26T11:25:03.627Z,27.53
2023-01-26T11:27:38.636Z,29.27
2023-01-26T11:30:44.134Z,32.23
2023-01-26T11:33:20.814Z,27.20
2023-01-26T11:35:52.775Z,26.93
2023-01-26T11:38:29.909Z,31.80
2023-01-26T11:41:17.540Z,35.10
2023-01-26T11:43:46.806Z,32.63
2023-01-26T11:46:41.476Z,25.90
2023-01-26T11:49:15.288Z,31.40
2023-01-26T11:52:10.764Z,26.03
2023-01-26T11:55:14.318Z,25.80
2023-01-26T11:58:02.722Z,26.93
2023-01-26T12:00:40.861Z,29.30
2023-01-26T12:03:18.452Z,26.37
2023-01-26T12:05:48.897Z,30.90
2023-01-26T12:08:22.504Z,24.27
2023-01-26T12:11:22.353Z,34.00
2023-01-26T12:14:12.013Z,30.10
2023-01-26T12:16:50.340Z,30.23
2023-01-26T12:19:53.946Z,29.00
2023-01-26T12:22:29.217Z,28.40
2023-01-26T12:25:19.862Z,27.10
2023-01-26T12:27:55.890Z,29.47
2023-01-26T12:30:28.682Z,29.93
2023-01-26T12:32:55.303Z,29.77
2023-01-26T12:35:55.463Z,27.97
2023-01-26T12:38:40.890Z,30.57
2023-01-26T12:41:23.337Z,30.20
2023-01-26T12:44:01.669Z,29.40
2023-01-26T12:46:32.201Z,36.80
2023-01-26T12:49:22.981Z,28.80
2023-01-26T12:51:54.877Z,33.67
2023-01-26T12:54:34.819Z,34.30
2023-01-26T12:57:02.282Z,39.60
2023-01-26T12:59:46.386Z,36.50
2023-01-26T13:02:30.840Z,36.87
2023-01-26T13:05:00.278Z,34.53
2023-01-26T13:07:52.809Z,36.10
2023-01-26T13:10:22.474Z,32.93
2023-01-26T13:13:01.938Z,41.33
2023-01-26T13:15:32.345Z,39.63
2023-01-26T13:18:03.736Z,34.90
2023-01-26T13:20:49.335Z,42.43
2023-01-26T13:23:28.249Z,40.50
2023-01-26T13:26:17.378Z,67.77
2023-01-26T13:28:45.186Z,35.57
2023-01-26T13:31:15.191Z,41.50
2023-01-26T13:33:42.216Z,37.80
2023-01-26T13:36:15.981Z,40.03
2023-01-26T13:38:45.248Z,39.80
2023-01-26T13:41:19.828Z,47.83
2023-01-26T13:44:10.301Z,42.73
2023-01-26T13:46:40.865Z,41.93
2023-01-26T13:49:23.831Z,45.50
2023-01-26T13:51:50.533Z,44.50
2023-01-26T13:54:17.937Z,35.80
2023-01-26T13:57:04.001Z,47.57
2023-01-26T13:59:30.965Z,44.73
2023-01-26T14:01:57.912Z,43.13
2023-01-26T14:04:30.037Z,44.97
2023-01-26T14:07:08.701Z,44.63
2023-01-26T14:09:44.764Z,47.33
2023-01-26T14:12:17.640Z,44.70
2023-01-26T14:14:47.970Z,46.53
2023-01-26T14:17:36.701Z,49.20
2023-01-26T14:20:18.707Z,50.20
2023-01-26T14:22:48.427Z,51.27
2023-01-26T14:25:20.100Z,58.40
2023-01-26T14:27:46.731Z,54.43
2023-01-26T14:30:23.146Z,48.33
2023-01-26T14:32:55.071Z,57.57
2023-01-26T14:35:23.419Z,49.87
2023-01-26T14:37:50.716Z,58.67
2023-01-26T14:40:20.369Z,48.97
2023-01-26T14:42:51.810Z,54.60
2023-01-26T14:45:25.061Z,57.47
2023-01-26T14:47:52.529Z,59.20
2023-01-26T14:50:30.841Z,56.30
2023-01-26T14:52:57.723Z,64.07
2023-01-26T14:55:32.003Z,63.47
2023-01-26T14:57:59.413Z,56.33
2023-01-26T15:00:29.069Z,52.13
2023-01-26T15:02:57.410Z,57.57
2023-01-26T15:05:32.055Z,53.07
2023-01-26T15:08:00.631Z,62.63
2023-01-26T15:10:30.003Z,53.73
2023-01-26T15:13:02.431Z,53.80
2023-01-26T15:15:30.831Z,52.33
2023-01-26T15:18:05.063Z,51.47
2023-01-26T15:20:31.536Z,58.73
2023-01-26T15:22:58.094Z,52.80
2023-01-26T15:25:27.153Z,50.77
2023-01-26T15:28:00.244Z,53.90
2023-01-26T15:30:36.933Z,55.70
2023-01-26T15:33:03.662Z,49.60
2023-01-26T15:35:32.259Z,53.73
2023-01-26T15:38:05.521Z,52.60
2023-01-26T15:40:32.140Z,53.87
2023-01-26T15:43:15.250Z,54.00
2023-01-26T15:45:58.147Z,58.93
2023-01-26T15:48:24.903Z,49.67
2023-01-26T15:50:51.735Z,55.70
2023-01-26T15:53:22.477Z,54.10
2023-01-26T15:55:52.899Z,57.37
2023-01-26T15:58:19.678Z,57.63
2023-01-26T16:00:46.258Z,50.43
2023-01-26T16:03:16.797Z,55.17
2023-01-26T16:05:44.255Z,54.77
2023-01-26T16:08:10.708Z,49.17
2023-01-26T16:10:38.110Z,54.07
2023-01-26T16:13:11.822Z,55.03
2023-01-26T16:15:49.030Z,47.93
2023-01-26T16:18:15.558Z,50.57
2023-01-26T16:20:43.682Z,50.70
2023-01-26T16:23:28.801Z,51.43
2023-01-26T16:25:55.620Z,54.57
2023-01-26T16:28:22.226Z,54.23
2023-01-26T16:30:50.871Z,55.27
2023-01-26T16:33:21.189Z,51.03
2023-01-26T16:35:47.969Z,54.47
2023-01-26T16:38:14.510Z,53.80
2023-01-26T16:40:42.934Z,54.70
2023-01-26T16:43:16.203Z,59.27
2023-01-26T16:45:42.756Z,50.10
2023-01-26T16:48:13.924Z,55.87
2023-01-26T16:50:41.450Z,48.77
2023-01-26T16:53:30.332Z,48.27
2023-01-26T16:55:56.884Z,48.37
2023-01-26T16:58:26.324Z,47.43
2023-01-26T17:00:54.484Z,49.00
2023-01-26T17:03:21.352Z,51.10
2023-01-26T17:05:47.916Z,48.50
2023-01-26T17:08:14.423Z,52.57
2023-01-26T17:10:55.544Z,50.67
2023-01-26T17:13:27.488Z,53.67
2023-01-26T17:15:56.533Z,47.07
2023-01-26T17:18:23.086Z,45.83
2023-01-26T17:20:49.615Z,52.73
2023-01-26T17:23:16.152Z,53.20
2023-01-26T17:25:42.655Z,52.17
2023-01-26T17:28:09.221Z,46.57
2023-01-26T17:30:35.779Z,45.87
2023-01-26T17:33:02.262Z,47.10
2023-01-26T17:35:28.767Z,43.30
2023-01-26T17:37:55.284Z,46.20
2023-01-26T17:40:21.784Z,46.33
2023-01-26T17:42:48.312Z,48.37
2023-01-26T17:45:14.973Z,50.23
2023-01-26T17:47:41.590Z,42.13
2023-01-26T17:50:08.668Z,45.03
2023-01-26T17:52:36.504Z,39.37
2023-01-26T17:55:06.270Z,42.43
2023-01-26T17:57:33.784Z,45.97
2023-01-26T18:00:00.360Z,55.27
2023-01-26T18:02:26.944Z,46.30
2023-01-26T18:04:53.808Z,43.43
2023-01-26T18:07:20.613Z,50.87
2023-01-26T18:09:47.187Z,51.03
2023-01-26T18:12:13.682Z,65.37
2023-01-26T18:14:40.159Z,38.33
2023-01-26T18:17:06.638Z,40.33
2023-01-26T18:19:33.258Z,41.20
2023-01-26T18:21:59.796Z,42.50
2023-01-26T18:24:26.581Z,45.80
2023-01-26T18:26:53.323Z,44.03
2023-01-26T18:29:19.760Z,41.20
2023-01-26T18:31:47.908Z,42.00
2023-01-26T18:34:15.455Z,40.33
2023-01-26T18:36:42.028Z,39.63
2023-01-26T18:39:12.936Z,48.57
2023-01-26T18:41:40.733Z,46.73
2023-01-26T18:44:08.208Z,45.67
2023-01-26T18:46:35.208Z,41.70
2023-01-26T18:49:03.424Z,39.50
2023-01-26T18:51:31.862Z,41.47
2023-01-26T18:53:58.489Z,42.70
2023-01-26T18:56:25.015Z,41.83
2023-01-26T18:58:53.848Z,39.00
2023-01-26T19:01:21.351Z,39.13
2023-01-26T19:03:54.118Z,43.00
2023-01-26T19:06:21.951Z,41.80
2023-01-26T19:08:58.612Z,40.33
2023-01-26T19:11:27.767Z,45.00
2023-01-26T19:13:55.096Z,47.63
2023-01-26T19:16:22.199Z,41.67
2023-01-26T19:18:49.867Z,38.33
2023-01-26T19:21:17.360Z,41.07
2023-01-26T19:23:44.031Z,39.47
2023-01-26T19:26:13.133Z,42.70
2023-01-26T19:28:41.457Z,41.80
2023-01-26T19:31:08.867Z,46.77
2023-01-26T19:33:35.600Z,44.23
2023-01-26T19:36:07.106Z,43.50
2023-01-26T19:38:34.295Z,47.87
2023-01-26T19:41:01.831Z,47.13
2023-01-26T19:43:28.857Z,48.93
2023-01-26T19:45:56.686Z,47.63
2023-01-26T19:48:25.294Z,44.17
2023-01-26T19:51:03.450Z,47.70
2023-01-26T19:53:31.651Z,45.40
2023-01-26T19:55:59.788Z,44.83
2023-01-26T19:58:27.800Z,51.50
2023-01-26T20:01:13.992Z,41.63
2023-01-26T20:03:40.782Z,42.07
2023-01-26T20:06:15.110Z,40.33
2023-01-26T20:08:42.045Z,38.30
2023-01-26T20:11:09.864Z,44.87
2023-01-26T20:13:36.995Z,37.73
2023-01-26T20:16:04.544Z,39.83
2023-01-26T20:18:31.250Z,39.97
2023-01-26T20:21:00.679Z,38.13
2023-01-26T20:23:27.743Z,33.60
2023-01-26T20:26:09.563Z,33.10
2023-01-26T20:28:37.915Z,35.30
2023-01-26T20:31:19.017Z,34.80
2023-01-26T20:33:49.405Z,36.27
2023-01-26T20:36:21.225Z,33.63
2023-01-26T20:38:48.400Z,36.07
2023-01-26T20:41:17.350Z,27.57
2023-01-26T20:43:58.769Z,27.30
2023-01-26T20:46:27.914Z,31.67
2023-01-26T20:48:55.716Z,26.13
2023-01-26T20:51:25.150Z,37.20
2023-01-26T20:53:51.776Z,30.87
2023-01-26T20:56:23.013Z,29.07
2023-01-26T20:58:52.283Z,28.00
2023-01-26T21:01:19.513Z,27.33
2023-01-26T21:03:46.304Z,27.23
2023-01-26T21:06:18.934Z,28.57
2023-01-26T21:08:48.010Z,29.60
2023-01-26T21:11:15.993Z,33.07
2023-01-26T21:13:42.939Z,30.67
2023-01-26T21:16:11.727Z,26.63
2023-01-26T21:18:38.219Z,29.23
2023-01-26T21:21:06.953Z,30.97
2023-01-26T21:23:34.561Z,34.33
2023-01-26T21:26:03.499Z,28.53
2023-01-26T21:28:30.212Z,34.20
2023-01-26T21:31:01.690Z,33.80
2023-01-26T21:33:32.177Z,32.40
2023-01-26T21:36:00.391Z,28.63
2023-01-26T21:38:29.125Z,32.60
2023-01-26T21:41:41.513Z,34.70
2023-01-26T21:44:15.945Z,33.97
2023-01-26T21:46:44.480Z,34.33
2023-01-26T21:49:13.071Z,34.97
2023-01-26T21:51:58.146Z,35.50
2023-01-26T21:54:24.805Z,36.93
2023-01-26T21:56:51.619Z,33.87
2023-01-26T21:59:18.689Z,38.33
2023-01-26T22:01:50.710Z,39.47
2023-01-26T22:04:20.423Z,33.40
2023-01-26T22:06:47.171Z,39.67
2023-01-26T22:09:14.971Z,33.90
2023-01-26T22:11:41.705Z,37.93
2023-01-26T22:14:13.396Z,35.33
2023-01-26T22:16:39.977Z,38.80
2023-01-26T22:19:06.866Z,37.57
2023-01-26T22:21:33.424Z,42.93
2023-01-26T22:24:00.020Z,36.30
2023-01-26T22:26:26.533Z,36.00
2023-01-26T22:28:55.060Z,40.87
2023-01-26T22:31:25.414Z,37.23
2023-01-26T22:33:52.338Z,35.33
2023-01-26T22:36:19.511Z,33.90
2023-01-26T22:38:46.704Z,39.73
2023-01-26T22:41:15.744Z,38.90
2023-01-26T22:43:42.573Z,41.47
2023-01-26T22:46:11.698Z,41.67
2023-01-26T22:48:38.359Z,38.93
2023-01-26T22:51:11.852Z,49.70
2023-01-26T22:53:38.954Z,39.73
2023-01-26T22:56:06.365Z,42.23
2023-01-26T22:58:35.195Z,39.47
2023-01-26T23:01:12.895Z,38.10
2023-01-26T23:03:40.642Z,44.23
2023-01-26T23:06:10.935Z,44.23
2023-01-26T23:08:37.644Z,43.93
2023-01-26T23:11:11.638Z,52.70
2023-01-26T23:13:39.197Z,38.37
2023-01-26T23:16:07.239Z,40.90
2023-01-26T23:18:33.858Z,37.83
2023-01-26T23:21:00.398Z,41.67
2023-01-26T23:23:27.559Z,41.43
2023-01-26T23:25:54.733Z,44.17
2023-01-26T23:28:23.376Z,43.23
2023-01-26T23:30:50.954Z,43.50
2023-01-26T23:33:18.701Z,47.30
2023-01-26T23:35:45.550Z,46.77
2023-01-26T23:38:12.783Z,44.47
2023-01-26T23:40:39.912Z,40.77
2023-01-26T23:43:16.203Z,44.10
2023-01-26T23:45:44.587Z,44.13
2023-01-26T23:48:12.225Z,37.50
2023-01-26T23:50:38.787Z,43.90
2023-01-26T23:53:05.431Z,42.43
2023-01-26T23:55:31.986Z,43.37
2023-01-26T23:57:58.517Z,48.83
